createdAt,value
2023-01-18T00:04:41.588Z,50.53
2023-01-18T00:09:43.077Z,49.55
2023-01-18T00:14:44.529Z,47.92
2023-01-18T00:19:45.949Z,48.88
2023-01-18T00:24:47.417Z,49.88
2023-01-18T00:29:48.880Z,45.05
2023-01-18T00:34:50.665Z,45.85
2023-01-18T00:39:52.102Z,46.83
2023-01-18T00:44:53.606Z,52.08
2023-01-18T00:49:55.082Z,45.47
2023-01-18T00:54:56.569Z,46.03
2023-01-18T00:59:57.973Z,52.42
2023-01-18T01:05:18.441Z,51.63
2023-01-18T01:10:19.931Z,47.45
2023-01-18T01:15:39.578Z,48.90
2023-01-18T01:20:59.567Z,44.08
2023-01-18T01:26:13.736Z,51.80
2023-01-18T01:31:16.205Z,41.28
2023-01-18T01:36:20.575Z,38.92
2023-01-18T01:41:26.708Z,38.17
2023-01-18T01:46:48.090Z,46.30
2023-01-18T01:51:58.596Z,40.65
2023-01-18T01:57:06.109Z,37.92
2023-01-18T02:02:07.944Z,42.28
2023-01-18T02:07:10.795Z,41.53
2023-01-18T02:12:12.904Z,40.90
2023-01-18T02:17:40.511Z,41.15
2023-01-18T02:22:47.774Z,41.67
2023-01-18T02:28:03.924Z,45.25
2023-01-18T02:33:10.828Z,39.50
2023-01-18T02:38:28.021Z,48.90
2023-01-18T02:43:48.399Z,44.13
2023-01-18T02:48:50.717Z,44.67
2023-01-18T02:53:52.616Z,43.35
2023-01-18T02:59:14.099Z,43.13
2023-01-18T03:04:26.701Z,42.83
2023-01-18T03:09:28.576Z,43.45
2023-01-18T03:14:47.956Z,44.13
2023-01-18T03:20:09.207Z,42.42
2023-01-18T03:25:15.090Z,46.55
2023-01-18T03:30:35.187Z,40.97
2023-01-18T03:35:38.243Z,44.58
2023-01-18T03:40:39.770Z,49.80
2023-01-18T03:45:46.539Z,45.60
2023-01-18T03:51:00.844Z,49.53
2023-01-18T03:56:09.004Z,49.50
2023-01-18T04:01:10.730Z,52.28
2023-01-18T04:06:12.252Z,51.15
2023-01-18T04:11:13.697Z,48.92
2023-01-18T04:16:15.290Z,50.13
2023-01-18T04:21:16.761Z,53.05
2023-01-18T04:26:19.277Z,51.45
2023-01-18T04:31:20.889Z,48.92
2023-01-18T04:36:22.432Z,44.75
2023-01-18T04:41:24.131Z,51.83
2023-01-18T04:46:25.617Z,51.42
2023-01-18T04:51:27.385Z,50.83
2023-01-18T04:56:28.836Z,48.35
2023-01-18T05:01:32.531Z,47.83
2023-01-18T05:06:33.967Z,50.42
2023-01-18T05:11:35.391Z,51.17
2023-01-18T05:16:36.879Z,51.08
2023-01-18T05:21:38.335Z,52.35
2023-01-18T05:26:39.765Z,49.50
2023-01-18T05:31:41.703Z,52.00
2023-01-18T05:36:43.151Z,52.28
2023-01-18T05:41:44.643Z,48.78
2023-01-18T05:46:46.103Z,47.63
2023-01-18T05:51:47.629Z,44.22
2023-01-18T05:56:49.068Z,47.08
2023-01-18T06:01:50.535Z,42.33
2023-01-18T06:06:51.980Z,48.53
2023-01-18T06:11:53.996Z,45.85
2023-01-18T06:16:55.665Z,43.13
2023-01-18T06:21:57.088Z,48.70
2023-01-18T06:26:59.227Z,43.72
2023-01-18T06:32:00.738Z,36.28
2023-01-18T06:37:03.381Z,37.60
2023-01-18T06:42:05.313Z,35.08
2023-01-18T06:47:06.735Z,31.63
2023-01-18T06:52:08.162Z,34.60
2023-01-18T06:57:09.569Z,34.33
2023-01-18T07:02:14.168Z,29.75
2023-01-18T07:07:15.724Z,31.10
2023-01-18T07:12:17.153Z,36.78
2023-01-18T07:17:18.650Z,29.10
2023-01-18T07:22:20.152Z,30.45
2023-01-18T07:27:21.569Z,26.67
2023-01-18T07:32:23.039Z,25.35
2023-01-18T07:37:24.449Z,23.33
2023-01-18T07:42:25.859Z,36.95
2023-01-18T07:47:27.292Z,25.00
2023-01-18T07:52:28.857Z,26.98
2023-01-18T07:57:30.275Z,24.17
2023-01-18T08:02:31.709Z,20.23
2023-01-18T08:07:33.441Z,23.17
2023-01-18T08:12:34.933Z,19.70
2023-01-18T08:17:36.362Z,24.77
2023-01-18T08:22:37.868Z,21.10
2023-01-18T08:27:39.273Z,23.05
2023-01-18T08:32:43.749Z,23.00
2023-01-18T08:37:45.199Z,22.45
2023-01-18T08:42:46.848Z,21.67
2023-01-18T08:47:48.255Z,23.58
2023-01-18T08:52:52.467Z,23.02
2023-01-18T08:57:54.802Z,24.88
2023-01-18T09:02:57.590Z,27.20
2023-01-18T09:07:59.363Z,27.33
2023-01-18T09:13:01.273Z,25.15
2023-01-18T09:18:06.194Z,23.50
2023-01-18T09:23:09.349Z,27.98
2023-01-18T09:28:12.362Z,26.52
2023-01-18T09:33:13.840Z,27.08
2023-01-18T09:38:16.044Z,26.33
2023-01-18T09:43:25.838Z,24.48
2023-01-18T09:48:35.762Z,27.65
2023-01-18T09:53:49.061Z,26.73
2023-01-18T09:59:05.637Z,27.08
2023-01-18T10:04:20.619Z,29.02
2023-01-18T10:09:28.955Z,23.38
2023-01-18T10:14:47.930Z,25.25
2023-01-18T10:19:50.245Z,26.25
2023-01-18T10:25:05.138Z,27.20
2023-01-18T10:30:12.637Z,27.08
2023-01-18T10:35:24.676Z,28.85
2023-01-18T10:40:26.600Z,28.17
2023-01-18T10:45:30.462Z,25.73
2023-01-18T10:50:39.826Z,29.50
2023-01-18T11:00:53.560Z,30.33
2023-01-18T11:06:04.812Z,29.02
2023-01-18T11:11:12.199Z,32.92
2023-01-18T11:16:17.629Z,28.17
2023-01-18T11:21:19.279Z,27.08
2023-01-18T11:26:23.381Z,27.48
2023-01-18T11:31:46.253Z,37.90
2023-01-18T11:36:47.874Z,33.45
2023-01-18T11:41:49.824Z,39.28
2023-01-18T11:46:55.676Z,30.77
2023-01-18T11:52:05.194Z,32.75
2023-01-18T12:02:56.517Z,30.85
2023-01-18T12:08:31.840Z,31.00
2023-01-18T12:13:42.267Z,29.70
2023-01-18T12:19:08.607Z,106.50
2023-01-18T12:24:23.767Z,47.75
2023-01-18T12:30:03.660Z,33.05
2023-01-18T12:35:35.629Z,29.42
2023-01-18T12:40:42.967Z,27.35
2023-01-18T12:46:09.077Z,25.33
2023-01-18T12:51:17.330Z,35.70
2023-01-18T12:56:31.378Z,31.38
2023-01-18T13:01:42.732Z,56.58
2023-01-18T13:06:45.610Z,48.40
2023-01-18T13:11:48.698Z,50.80
2023-01-18T13:17:08.897Z,53.67
2023-01-18T13:22:59.435Z,46.08
2023-01-18T13:28:02.747Z,48.60
2023-01-18T13:33:13.776Z,50.08
2023-01-18T13:38:21.139Z,49.65
2023-01-18T13:43:35.615Z,64.80
2023-01-18T13:48:55.213Z,40.78
2023-01-18T13:53:56.721Z,39.13
2023-01-18T13:59:23.286Z,40.13
2023-01-18T14:04:30.140Z,32.17
2023-01-18T14:09:36.410Z,27.90
2023-01-18T14:14:59.384Z,22.83
2023-01-18T14:20:25.505Z,30.42
2023-01-18T14:26:02.521Z,29.00
2023-01-18T14:31:07.098Z,32.85
2023-01-18T14:36:20.879Z,37.85
2023-01-18T14:41:23.206Z,39.70
2023-01-18T14:46:27.070Z,38.92
2023-01-18T14:51:29.976Z,40.92
2023-01-18T14:56:34.838Z,38.83
2023-01-18T15:01:40.093Z,36.35
2023-01-18T15:06:45.775Z,32.15
2023-01-18T15:11:49.266Z,34.78
2023-01-18T15:16:53.514Z,33.80
2023-01-18T15:21:55.070Z,33.42
2023-01-18T15:27:01.249Z,43.10
2023-01-18T15:32:16.508Z,43.47
2023-01-18T15:37:27.167Z,42.90
2023-01-18T15:42:36.912Z,43.55
2023-01-18T15:47:38.525Z,42.25
2023-01-18T15:52:46.500Z,43.90
2023-01-18T15:58:01.310Z,43.63
2023-01-18T16:03:04.539Z,46.67
2023-01-18T16:08:16.918Z,45.88
2023-01-18T16:13:31.000Z,46.58
2023-01-18T16:18:32.599Z,46.97
2023-01-18T16:23:34.276Z,65.15
2023-01-18T16:28:35.732Z,51.25
2023-01-18T16:33:37.164Z,49.58
2023-01-18T16:38:38.604Z,50.17
2023-01-18T16:43:40.630Z,50.25
2023-01-18T16:48:42.118Z,51.92
2023-01-18T16:53:43.565Z,56.15
2023-01-18T16:58:45.040Z,56.88
2023-01-18T17:03:46.456Z,63.05
2023-01-18T17:08:49.323Z,69.47
2023-01-18T17:13:50.941Z,95.88
2023-01-18T17:18:52.533Z,81.00
2023-01-18T17:23:54.024Z,80.07
2023-01-18T17:28:55.455Z,71.70
2023-01-18T17:33:56.912Z,70.70
2023-01-18T17:38:58.435Z,62.17
2023-01-18T17:43:59.880Z,65.50
2023-01-18T17:49:02.701Z,62.40
2023-01-18T17:54:10.247Z,61.90
2023-01-18T17:59:15.444Z,67.55
2023-01-18T18:04:16.910Z,64.97
2023-01-18T18:09:18.380Z,61.47
2023-01-18T18:14:19.893Z,63.92
2023-01-18T18:19:21.354Z,65.93
2023-01-18T18:24:22.889Z,72.15
2023-01-18T18:29:24.323Z,70.25
2023-01-18T18:34:25.928Z,69.00
2023-01-18T18:39:27.345Z,74.97
2023-01-18T18:44:28.984Z,73.22
2023-01-18T18:49:30.415Z,71.63
2023-01-18T18:54:31.911Z,70.22
2023-01-18T18:59:33.395Z,72.07
2023-01-18T19:04:34.878Z,75.95
2023-01-18T19:09:36.373Z,81.43
2023-01-18T19:14:37.801Z,82.60
2023-01-18T19:19:39.257Z,84.32
2023-01-18T19:24:40.801Z,79.07
2023-01-18T19:29:42.231Z,76.82
2023-01-18T19:34:43.783Z,85.63
2023-01-18T19:39:45.907Z,88.10
2023-01-18T19:44:47.303Z,80.88
2023-01-18T19:49:48.846Z,88.68
2023-01-18T19:54:50.249Z,80.13
2023-01-18T19:59:51.793Z,87.07
2023-01-18T20:04:53.334Z,80.55
2023-01-18T20:09:54.863Z,80.22
2023-01-18T20:14:56.280Z,78.90
2023-01-18T20:19:57.685Z,79.72
2023-01-18T20:24:59.140Z,77.32
2023-01-18T20:30:00.621Z,76.47
2023-01-18T20:35:02.062Z,72.07
2023-01-18T20:40:03.732Z,70.82
2023-01-18T20:45:05.800Z,70.13
2023-01-18T20:50:07.584Z,85.30
2023-01-18T20:55:12.784Z,73.50
2023-01-18T21:00:14.698Z,71.00
2023-01-18T21:05:16.207Z,76.72
2023-01-18T21:10:17.625Z,67.78
2023-01-18T21:15:19.041Z,72.57
2023-01-18T21:20:20.465Z,63.30
2023-01-18T21:25:22.124Z,67.30
2023-01-18T21:30:23.702Z,59.22
2023-01-18T21:35:25.219Z,62.88
2023-01-18T21:40:26.633Z,64.32
2023-01-18T21:45:46.840Z,86.78
2023-01-18T21:51:06.940Z,70.32
2023-01-18T21:56:08.928Z,74.97
2023-01-18T22:01:16.912Z,157.50
2023-01-18T22:06:18.417Z,97.43
2023-01-18T22:11:19.927Z,118.30
2023-01-18T22:16:21.389Z,128.27
2023-01-18T22:21:25.362Z,88.10
2023-01-18T22:26:29.248Z,75.88
2023-01-18T22:31:30.702Z,75.07
2023-01-18T22:36:32.880Z,68.78
2023-01-18T22:41:34.382Z,69.78
2023-01-18T22:46:35.851Z,70.63
2023-01-18T22:51:37.467Z,68.55
2023-01-18T22:56:38.904Z,95.70
2023-01-18T23:01:40.350Z,73.63
2023-01-18T23:06:47.880Z,70.47
2023-01-18T23:11:49.526Z,78.88
2023-01-18T23:17:09.800Z,75.53
2023-01-18T23:22:11.326Z,99.28
2023-01-18T23:27:12.797Z,89.68
2023-01-18T23:32:14.205Z,83.68
2023-01-18T23:37:15.605Z,88.88
2023-01-18T23:42:35.700Z,76.18
2023-01-18T23:47:55.776Z,64.72
2023-01-18T23:53:18.842Z,68.72
2023-01-18T23:58:20.675Z,67.05
